sensor_id;sensor_type;location;lat;lon;timestamp;temperature;humidity
23495;DHT22;26107;50.832;2.950;2023-04-15T00:11:38;11.30;99.90
23495;DHT22;26107;50.832;2.950;2023-04-15T00:26:39;11.10;99.90
23495;DHT22;26107;50.832;2.950;2023-04-15T00:41:40;11.10;99.90
23495;DHT22;26107;50.832;2.950;2023-04-15T00:56:41;11.00;99.90
23495;DHT22;26107;50.832;2.950;2023-04-15T01:11:42;11.00;99.90
23495;DHT22;26107;50.832;2.950;2023-04-15T01:26:42;11.00;99.90
23495;DHT22;26107;50.832;2.950;2023-04-15T01:41:43;11.20;99.90
23495;DHT22;26107;50.832;2.950;2023-04-15T01:56:44;10.70;99.90
23495;DHT22;26107;50.832;2.950;2023-04-15T02:11:45;10.90;99.90
23495;DHT22;26107;50.832;2.950;2023-04-15T02:26:45;10.60;99.90
23495;DHT22;26107;50.832;2.950;2023-04-15T02:41:46;10.80;99.90
23495;DHT22;26107;50.832;2.950;2023-04-15T02:56:51;10.80;99.90
23495;DHT22;26107;50.832;2.950;2023-04-15T03:11:54;10.60;99.90
23495;DHT22;26107;50.832;2.950;2023-04-15T03:26:56;10.40;99.90
23495;DHT22;26107;50.832;2.950;2023-04-15T03:41:57;10.30;99.90
23495;DHT22;26107;50.832;2.950;2023-04-15T03:56:58;10.40;99.90
23495;DHT22;26107;50.832;2.950;2023-04-15T04:11:59;10.30;99.90
23495;DHT22;26107;50.832;2.950;2023-04-15T04:27:00;10.30;99.90
23495;DHT22;26107;50.832;2.950;2023-04-15T04:42:01;10.20;99.90
23495;DHT22;26107;50.832;2.950;2023-04-15T04:57:02;10.20;99.90
23495;DHT22;26107;50.832;2.950;2023-04-15T05:12:03;9.50;99.90
23495;DHT22;26107;50.832;2.950;2023-04-15T05:27:04;8.70;99.90
23495;DHT22;26107;50.832;2.950;2023-04-15T05:42:04;8.80;99.90
23495;DHT22;26107;50.832;2.950;2023-04-15T05:57:05;8.40;99.90
23495;DHT22;26107;50.832;2.950;2023-04-15T06:12:07;9.30;99.90
23495;DHT22;26107;50.832;2.950;2023-04-15T06:27:11;10.50;99.90
23495;DHT22;26107;50.832;2.950;2023-04-15T06:42:12;10.70;99.90
23495;DHT22;26107;50.832;2.950;2023-04-15T06:57:12;10.80;99.90
23495;DHT22;26107;50.832;2.950;2023-04-15T07:12:13;10.90;99.90
23495;DHT22;26107;50.832;2.950;2023-04-15T07:27:13;11.00;99.90
23495;DHT22;26107;50.832;2.950;2023-04-15T07:42:14;10.60;99.90
23495;DHT22;26107;50.832;2.950;2023-04-15T07:57:15;10.50;99.90
23495;DHT22;26107;50.832;2.950;2023-04-15T08:12:16;9.90;99.90
23495;DHT22;26107;50.832;2.950;2023-04-15T08:27:17;9.30;99.90
23495;DHT22;26107;50.832;2.950;2023-04-15T08:42:22;10.10;99.90
23495;DHT22;26107;50.832;2.950;2023-04-15T08:57:27;11.00;99.90
23495;DHT22;26107;50.832;2.950;2023-04-15T09:12:28;10.10;99.90
23495;DHT22;26107;50.832;2.950;2023-04-15T09:27:29;10.30;99.90
23495;DHT22;26107;50.832;2.950;2023-04-15T09:42:30;10.80;99.90
23495;DHT22;26107;50.832;2.950;2023-04-15T09:57:33;11.10;99.90
23495;DHT22;26107;50.832;2.950;2023-04-15T10:12:36;11.30;99.90
23495;DHT22;26107;50.832;2.950;2023-04-15T10:27:39;11.70;99.90
23495;DHT22;26107;50.832;2.950;2023-04-15T10:42:41;11.90;99.90
23495;DHT22;26107;50.832;2.950;2023-04-15T10:57:42;12.00;99.90
23495;DHT22;26107;50.832;2.950;2023-04-15T11:13:00;12.30;99.90
23495;DHT22;26107;50.832;2.950;2023-04-15T11:28:01;12.40;99.90
23495;DHT22;26107;50.832;2.950;2023-04-15T11:58:14;14.60;99.90
23495;DHT22;26107;50.832;2.950;2023-04-15T12:13:16;13.80;99.90
23495;DHT22;26107;50.832;2.950;2023-04-15T12:28:16;14.00;99.90
23495;DHT22;26107;50.832;2.950;2023-04-15T12:43:17;14.30;99.90
23495;DHT22;26107;50.832;2.950;2023-04-15T12:58:18;14.90;99.90
23495;DHT22;26107;50.832;2.950;2023-04-15T13:13:18;15.20;99.90
23495;DHT22;26107;50.832;2.950;2023-04-15T13:28:19;15.30;99.90
23495;DHT22;26107;50.832;2.950;2023-04-15T13:43:19;14.80;99.90
23495;DHT22;26107;50.832;2.950;2023-04-15T13:58:20;14.30;99.90
23495;DHT22;26107;50.832;2.950;2023-04-15T14:13:21;14.20;99.90
23495;DHT22;26107;50.832;2.950;2023-04-15T14:28:24;14.50;99.90
23495;DHT22;26107;50.832;2.950;2023-04-15T14:43:24;14.20;99.90
23495;DHT22;26107;50.832;2.950;2023-04-15T14:58:25;14.30;99.90
23495;DHT22;26107;50.832;2.950;2023-04-15T15:13:25;14.00;99.90
23495;DHT22;26107;50.832;2.950;2023-04-15T15:28:26;14.00;99.90
23495;DHT22;26107;50.832;2.950;2023-04-15T15:43:27;13.90;99.90
23495;DHT22;26107;50.832;2.950;2023-04-15T15:58:28;14.80;99.90
23495;DHT22;26107;50.832;2.950;2023-04-15T16:13:29;14.30;99.90
23495;DHT22;26107;50.832;2.950;2023-04-15T16:28:29;14.90;99.90
23495;DHT22;26107;50.832;2.950;2023-04-15T16:43:30;14.00;99.90
23495;DHT22;26107;50.832;2.950;2023-04-15T16:58:30;15.40;99.90
23495;DHT22;26107;50.832;2.950;2023-04-15T17:13:31;17.50;99.90
23495;DHT22;26107;50.832;2.950;2023-04-15T17:28:32;15.90;99.90
23495;DHT22;26107;50.832;2.950;2023-04-15T17:43:32;15.20;99.90
23495;DHT22;26107;50.832;2.950;2023-04-15T17:58:33;14.30;99.90
23495;DHT22;26107;50.832;2.950;2023-04-15T18:13:33;13.00;99.90
23495;DHT22;26107;50.832;2.950;2023-04-15T18:28:34;11.80;99.90
23495;DHT22;26107;50.832;2.950;2023-04-15T18:43:35;11.00;99.90
23495;DHT22;26107;50.832;2.950;2023-04-15T18:58:35;10.50;99.90
23495;DHT22;26107;50.832;2.950;2023-04-15T19:13:37;10.10;99.90
23495;DHT22;26107;50.832;2.950;2023-04-15T19:28:38;9.80;99.90
23495;DHT22;26107;50.832;2.950;2023-04-15T19:43:39;9.50;99.90
23495;DHT22;26107;50.832;2.950;2023-04-15T19:58:39;9.30;99.90
23495;DHT22;26107;50.832;2.950;2023-04-15T20:13:40;9.30;99.90
23495;DHT22;26107;50.832;2.950;2023-04-15T20:28:40;9.00;99.90
23495;DHT22;26107;50.832;2.950;2023-04-15T20:43:41;8.70;99.90
23495;DHT22;26107;50.832;2.950;2023-04-15T20:58:42;8.60;99.90
23495;DHT22;26107;50.832;2.950;2023-04-15T21:13:42;8.40;99.90
23495;DHT22;26107;50.832;2.950;2023-04-15T21:28:45;8.30;99.90
23495;DHT22;26107;50.832;2.950;2023-04-15T21:43:46;8.00;99.90
23495;DHT22;26107;50.832;2.950;2023-04-15T21:58:46;7.80;99.90
23495;DHT22;26107;50.832;2.950;2023-04-15T22:13:47;7.80;99.90
23495;DHT22;26107;50.832;2.950;2023-04-15T22:28:48;7.80;99.90
23495;DHT22;26107;50.832;2.950;2023-04-15T22:43:48;7.90;99.90
23495;DHT22;26107;50.832;2.950;2023-04-15T22:58:49;8.20;99.90
23495;DHT22;26107;50.832;2.950;2023-04-15T23:13:50;7.90;99.90
23495;DHT22;26107;50.832;2.950;2023-04-15T23:28:51;7.70;99.90
23495;DHT22;26107;50.832;2.950;2023-04-15T23:43:51;7.80;99.90
23495;DHT22;26107;50.832;2.950;2023-04-15T23:58:52;7.60;99.90
